sensor_id;sensor_type;location;lat;lon;timestamp;P1;durP1;ratioP1;P2;durP2;ratioP2
23594;SDS011;11975;47.674;9.472;2022-11-11T00:00:00;23.95;;;22.55;;
23594;SDS011;11975;47.674;9.472;2022-11-11T00:02:26;24.85;;;23.45;;
23594;SDS011;11975;47.674;9.472;2022-11-11T00:04:52;24.85;;;23.45;;
23594;SDS011;11975;47.674;9.472;2022-11-11T00:07:18;24.25;;;22.88;;
23594;SDS011;11975;47.674;9.472;2022-11-11T00:09:44;23.77;;;22.48;;
23594;SDS011;11975;47.674;9.472;2022-11-11T00:12:10;23.88;;;22.48;;
23594;SDS011;11975;47.674;9.472;2022-11-11T00:14:36;24.35;;;22.85;;
23594;SDS011;11975;47.674;9.472;2022-11-11T00:17:02;24.38;;;22.98;;
23594;SDS011;11975;47.674;9.472;2022-11-11T00:19:46;23.30;;;21.90;;
23594;SDS011;11975;47.674;9.472;2022-11-11T00:22:30;23.15;;;21.85;;
23594;SDS011;11975;47.674;9.472;2022-11-11T00:25:15;23.80;;;22.40;;
23594;SDS011;11975;47.674;9.472;2022-11-11T00:27:42;23.58;;;22.27;;
23594;SDS011;11975;47.674;9.472;2022-11-11T00:30:08;23.90;;;22.50;;
23594;SDS011;11975;47.674;9.472;2022-11-11T00:32:34;23.10;;;21.80;;
23594;SDS011;11975;47.674;9.472;2022-11-11T00:35:00;23.85;;;22.55;;
23594;SDS011;11975;47.674;9.472;2022-11-11T00:37:45;24.92;;;23.52;;
23594;SDS011;11975;47.674;9.472;2022-11-11T00:40:13;25.98;;;24.50;;
23594;SDS011;11975;47.674;9.472;2022-11-11T00:42:39;25.48;;;24.02;;
23594;SDS011;11975;47.674;9.472;2022-11-11T00:45:05;26.52;;;24.92;;
23594;SDS011;11975;47.674;9.472;2022-11-11T00:47:32;25.63;;;24.02;;
23594;SDS011;11975;47.674;9.472;2022-11-11T00:50:17;25.88;;;24.17;;
23594;SDS011;11975;47.674;9.472;2022-11-11T00:53:13;23.42;;;22.08;;
23594;SDS011;11975;47.674;9.472;2022-11-11T00:55:41;23.17;;;21.88;;
23594;SDS011;11975;47.674;9.472;2022-11-11T00:58:07;24.20;;;22.80;;
23594;SDS011;11975;47.674;9.472;2022-11-11T01:00:33;26.55;;;24.95;;
23594;SDS011;11975;47.674;9.472;2022-11-11T01:02:59;26.50;;;25.00;;
23594;SDS011;11975;47.674;9.472;2022-11-11T01:05:26;25.15;;;23.65;;
23594;SDS011;11975;47.674;9.472;2022-11-11T01:07:52;24.10;;;22.70;;
23594;SDS011;11975;47.674;9.472;2022-11-11T01:10:18;23.55;;;22.25;;
23594;SDS011;11975;47.674;9.472;2022-11-11T01:13:06;23.52;;;22.13;;
23594;SDS011;11975;47.674;9.472;2022-11-11T01:15:44;22.90;;;21.60;;
23594;SDS011;11975;47.674;9.472;2022-11-11T01:18:13;23.15;;;21.85;;
23594;SDS011;11975;47.674;9.472;2022-11-11T01:20:40;23.55;;;22.15;;
23594;SDS011;11975;47.674;9.472;2022-11-11T01:23:07;23.23;;;21.90;;
23594;SDS011;11975;47.674;9.472;2022-11-11T01:25:34;23.42;;;22.13;;
23594;SDS011;11975;47.674;9.472;2022-11-11T01:30:27;24.33;;;22.93;;
23594;SDS011;11975;47.674;9.472;2022-11-11T01:32:53;24.08;;;22.52;;
23594;SDS011;11975;47.674;9.472;2022-11-11T01:35:19;23.45;;;22.15;;
23594;SDS011;11975;47.674;9.472;2022-11-11T01:37:45;23.15;;;21.85;;
23594;SDS011;11975;47.674;9.472;2022-11-11T01:40:11;24.58;;;23.17;;
23594;SDS011;11975;47.674;9.472;2022-11-11T01:42:47;23.48;;;22.17;;
23594;SDS011;11975;47.674;9.472;2022-11-11T01:48:28;24.55;;;23.15;;
23594;SDS011;11975;47.674;9.472;2022-11-11T01:51:27;24.33;;;22.92;;
23594;SDS011;11975;47.674;9.472;2022-11-11T01:54:00;24.75;;;23.35;;
23594;SDS011;11975;47.674;9.472;2022-11-11T01:56:27;24.27;;;22.88;;
23594;SDS011;11975;47.674;9.472;2022-11-11T01:58:54;23.63;;;22.33;;
23594;SDS011;11975;47.674;9.472;2022-11-11T02:01:22;23.02;;;21.73;;
23594;SDS011;11975;47.674;9.472;2022-11-11T02:03:48;23.77;;;22.48;;
23594;SDS011;11975;47.674;9.472;2022-11-11T02:06:34;23.67;;;22.37;;
23594;SDS011;11975;47.674;9.472;2022-11-11T02:09:02;23.70;;;22.40;;
23594;SDS011;11975;47.674;9.472;2022-11-11T02:11:28;24.52;;;23.15;;
23594;SDS011;11975;47.674;9.472;2022-11-11T02:14:14;24.75;;;23.35;;
23594;SDS011;11975;47.674;9.472;2022-11-11T02:16:59;24.13;;;22.80;;
23594;SDS011;11975;47.674;9.472;2022-11-11T02:19:29;24.05;;;22.73;;
23594;SDS011;11975;47.674;9.472;2022-11-11T02:22:00;24.27;;;22.88;;
23594;SDS011;11975;47.674;9.472;2022-11-11T02:24:26;23.92;;;22.63;;
23594;SDS011;11975;47.674;9.472;2022-11-11T02:26:53;23.85;;;22.50;;
23594;SDS011;11975;47.674;9.472;2022-11-11T02:29:20;24.42;;;23.02;;
23594;SDS011;11975;47.674;9.472;2022-11-11T02:31:46;23.37;;;22.07;;
23594;SDS011;11975;47.674;9.472;2022-11-11T02:34:12;24.08;;;22.70;;
23594;SDS011;11975;47.674;9.472;2022-11-11T02:36:38;23.75;;;22.45;;
23594;SDS011;11975;47.674;9.472;2022-11-11T02:39:05;24.45;;;23.05;;
23594;SDS011;11975;47.674;9.472;2022-11-11T02:41:31;22.92;;;21.63;;
23594;SDS011;11975;47.674;9.472;2022-11-11T02:44:15;24.08;;;22.45;;
23594;SDS011;11975;47.674;9.472;2022-11-11T02:46:41;23.58;;;22.27;;
23594;SDS011;11975;47.674;9.472;2022-11-11T02:49:07;23.95;;;22.45;;
23594;SDS011;11975;47.674;9.472;2022-11-11T02:54:55;24.70;;;23.23;;
23594;SDS011;11975;47.674;9.472;2022-11-11T02:57:21;23.80;;;22.50;;
23594;SDS011;11975;47.674;9.472;2022-11-11T02:59:47;24.35;;;22.95;;
23594;SDS011;11975;47.674;9.472;2022-11-11T03:02:13;23.95;;;22.63;;
23594;SDS011;11975;47.674;9.472;2022-11-11T03:04:39;24.98;;;23.58;;
23594;SDS011;11975;47.674;9.472;2022-11-11T03:07:06;25.45;;;24.05;;
23594;SDS011;11975;47.674;9.472;2022-11-11T03:09:32;26.90;;;25.40;;
23594;SDS011;11975;47.674;9.472;2022-11-11T03:11:58;27.45;;;25.85;;
23594;SDS011;11975;47.674;9.472;2022-11-11T03:14:24;28.05;;;26.45;;
23594;SDS011;11975;47.674;9.472;2022-11-11T03:16:50;29.08;;;27.45;;
23594;SDS011;11975;47.674;9.472;2022-11-11T03:19:35;28.73;;;27.05;;
23594;SDS011;11975;47.674;9.472;2022-11-11T03:22:01;27.33;;;25.83;;
23594;SDS011;11975;47.674;9.472;2022-11-11T03:24:28;27.13;;;25.63;;
23594;SDS011;11975;47.674;9.472;2022-11-11T03:29:40;25.35;;;23.95;;
23594;SDS011;11975;47.674;9.472;2022-11-11T03:32:07;26.38;;;24.88;;
23594;SDS011;11975;47.674;9.472;2022-11-11T03:34:33;25.77;;;24.35;;
23594;SDS011;11975;47.674;9.472;2022-11-11T03:36:59;27.75;;;26.15;;
23594;SDS011;11975;47.674;9.472;2022-11-11T03:39:44;26.83;;;25.33;;
23594;SDS011;11975;47.674;9.472;2022-11-11T03:42:10;27.75;;;26.15;;
23594;SDS011;11975;47.674;9.472;2022-11-11T03:44:36;28.10;;;26.50;;
23594;SDS011;11975;47.674;9.472;2022-11-11T03:47:02;26.30;;;24.80;;
23594;SDS011;11975;47.674;9.472;2022-11-11T03:49:28;26.35;;;24.85;;
23594;SDS011;11975;47.674;9.472;2022-11-11T03:51:54;26.50;;;25.00;;
23594;SDS011;11975;47.674;9.472;2022-11-11T03:54:20;26.33;;;24.73;;
23594;SDS011;11975;47.674;9.472;2022-11-11T03:56:45;26.58;;;24.98;;
23594;SDS011;11975;47.674;9.472;2022-11-11T03:59:11;26.55;;;25.05;;
23594;SDS011;11975;47.674;9.472;2022-11-11T04:01:37;27.08;;;25.58;;
23594;SDS011;11975;47.674;9.472;2022-11-11T04:04:22;28.63;;;27.02;;
23594;SDS011;11975;47.674;9.472;2022-11-11T04:07:07;28.55;;;26.95;;
23594;SDS011;11975;47.674;9.472;2022-11-11T04:09:52;27.85;;;26.27;;
23594;SDS011;11975;47.674;9.472;2022-11-11T04:12:37;28.42;;;26.83;;
23594;SDS011;11975;47.674;9.472;2022-11-11T04:15:22;28.95;;;27.30;;
23594;SDS011;11975;47.674;9.472;2022-11-11T04:18:06;27.17;;;25.67;;
23594;SDS011;11975;47.674;9.472;2022-11-11T04:20:32;28.50;;;26.90;;
23594;SDS011;11975;47.674;9.472;2022-11-11T04:23:17;29.27;;;27.45;;
23594;SDS011;11975;47.674;9.472;2022-11-11T04:25:43;31.50;;;29.70;;
23594;SDS011;11975;47.674;9.472;2022-11-11T04:28:14;29.90;;;28.17;;
23594;SDS011;11975;47.674;9.472;2022-11-11T04:31:10;29.02;;;27.40;;
23594;SDS011;11975;47.674;9.472;2022-11-11T04:33:36;28.85;;;27.15;;
23594;SDS011;11975;47.674;9.472;2022-11-11T04:36:01;27.85;;;26.27;;
23594;SDS011;11975;47.674;9.472;2022-11-11T04:38:27;30.98;;;29.17;;
23594;SDS011;11975;47.674;9.472;2022-11-11T04:41:12;31.73;;;29.92;;
23594;SDS011;11975;47.674;9.472;2022-11-11T04:43:38;30.63;;;28.90;;
23594;SDS011;11975;47.674;9.472;2022-11-11T04:46:22;31.42;;;29.52;;
23594;SDS011;11975;47.674;9.472;2022-11-11T04:48:48;29.92;;;28.15;;
23594;SDS011;11975;47.674;9.472;2022-11-11T04:51:14;30.35;;;28.63;;
23594;SDS011;11975;47.674;9.472;2022-11-11T04:53:40;29.63;;;27.95;;
23594;SDS011;11975;47.674;9.472;2022-11-11T04:56:07;30.60;;;28.80;;
23594;SDS011;11975;47.674;9.472;2022-11-11T04:58:52;31.95;;;30.05;;
23594;SDS011;11975;47.674;9.472;2022-11-11T05:01:37;32.97;;;30.77;;
23594;SDS011;11975;47.674;9.472;2022-11-11T05:04:22;34.28;;;31.88;;
23594;SDS011;11975;47.674;9.472;2022-11-11T05:06:48;34.03;;;31.73;;
23594;SDS011;11975;47.674;9.472;2022-11-11T05:09:32;34.47;;;32.47;;
23594;SDS011;11975;47.674;9.472;2022-11-11T05:11:58;34.70;;;32.70;;
23594;SDS011;11975;47.674;9.472;2022-11-11T05:14:24;35.38;;;33.30;;
23594;SDS011;11975;47.674;9.472;2022-11-11T05:17:09;34.45;;;32.45;;
23594;SDS011;11975;47.674;9.472;2022-11-11T05:19:53;34.58;;;32.58;;
23594;SDS011;11975;47.674;9.472;2022-11-11T05:22:39;35.50;;;33.40;;
23594;SDS011;11975;47.674;9.472;2022-11-11T05:25:06;35.63;;;33.22;;
23594;SDS011;11975;47.674;9.472;2022-11-11T05:27:54;35.10;;;33.05;;
23594;SDS011;11975;47.674;9.472;2022-11-11T05:30:24;34.78;;;32.67;;
23594;SDS011;11975;47.674;9.472;2022-11-11T05:32:50;35.75;;;33.03;;
23594;SDS011;11975;47.674;9.472;2022-11-11T05:35:16;35.78;;;33.67;;
23594;SDS011;11975;47.674;9.472;2022-11-11T05:37:42;34.42;;;32.42;;
23594;SDS011;11975;47.674;9.472;2022-11-11T05:40:09;33.90;;;31.98;;
23594;SDS011;11975;47.674;9.472;2022-11-11T05:42:39;33.55;;;31.63;;
23594;SDS011;11975;47.674;9.472;2022-11-11T05:45:07;32.95;;;31.05;;
23594;SDS011;11975;47.674;9.472;2022-11-11T05:47:33;32.97;;;31.10;;
23594;SDS011;11975;47.674;9.472;2022-11-11T05:49:59;33.92;;;31.98;;
23594;SDS011;11975;47.674;9.472;2022-11-11T05:52:25;34.35;;;32.35;;
23594;SDS011;11975;47.674;9.472;2022-11-11T05:54:51;34.95;;;32.78;;
23594;SDS011;11975;47.674;9.472;2022-11-11T05:57:17;33.95;;;31.98;;
23594;SDS011;11975;47.674;9.472;2022-11-11T05:59:43;33.90;;;31.90;;
23594;SDS011;11975;47.674;9.472;2022-11-11T06:02:10;34.25;;;32.25;;
23594;SDS011;11975;47.674;9.472;2022-11-11T06:04:36;33.35;;;31.40;;
23594;SDS011;11975;47.674;9.472;2022-11-11T06:07:02;34.35;;;32.28;;
23594;SDS011;11975;47.674;9.472;2022-11-11T06:09:28;34.63;;;32.50;;
23594;SDS011;11975;47.674;9.472;2022-11-11T06:11:54;32.88;;;30.98;;
23594;SDS011;11975;47.674;9.472;2022-11-11T06:14:20;33.78;;;31.83;;
23594;SDS011;11975;47.674;9.472;2022-11-11T06:16:46;35.37;;;32.87;;
23594;SDS011;11975;47.674;9.472;2022-11-11T06:19:12;32.65;;;30.75;;
23594;SDS011;11975;47.674;9.472;2022-11-11T06:21:38;34.33;;;32.33;;
23594;SDS011;11975;47.674;9.472;2022-11-11T06:24:22;34.20;;;32.20;;
23594;SDS011;11975;47.674;9.472;2022-11-11T06:26:48;34.08;;;32.13;;
23594;SDS011;11975;47.674;9.472;2022-11-11T06:29:14;34.17;;;32.15;;
23594;SDS011;11975;47.674;9.472;2022-11-11T06:31:40;35.22;;;33.13;;
23594;SDS011;11975;47.674;9.472;2022-11-11T06:34:06;34.92;;;32.75;;
23594;SDS011;11975;47.674;9.472;2022-11-11T06:36:32;35.03;;;32.92;;
23594;SDS011;11975;47.674;9.472;2022-11-11T06:38:58;33.03;;;31.13;;
23594;SDS011;11975;47.674;9.472;2022-11-11T06:41:24;33.25;;;31.30;;
23594;SDS011;11975;47.674;9.472;2022-11-11T06:43:50;32.33;;;30.42;;
23594;SDS011;11975;47.674;9.472;2022-11-11T06:46:23;34.92;;;32.78;;
23594;SDS011;11975;47.674;9.472;2022-11-11T06:48:50;33.60;;;31.20;;
23594;SDS011;11975;47.674;9.472;2022-11-11T06:51:16;32.40;;;30.50;;
23594;SDS011;11975;47.674;9.472;2022-11-11T06:53:42;34.38;;;32.20;;
23594;SDS011;11975;47.674;9.472;2022-11-11T06:56:08;33.58;;;31.50;;
23594;SDS011;11975;47.674;9.472;2022-11-11T06:58:34;34.45;;;32.35;;
23594;SDS011;11975;47.674;9.472;2022-11-11T07:01:03;32.55;;;30.65;;
23594;SDS011;11975;47.674;9.472;2022-11-11T07:03:31;34.38;;;32.08;;
23594;SDS011;11975;47.674;9.472;2022-11-11T07:05:59;33.38;;;31.38;;
23594;SDS011;11975;47.674;9.472;2022-11-11T07:08:25;34.78;;;32.50;;
23594;SDS011;11975;47.674;9.472;2022-11-11T07:10:51;32.88;;;30.88;;
23594;SDS011;11975;47.674;9.472;2022-11-11T07:13:17;32.90;;;31.00;;
23594;SDS011;11975;47.674;9.472;2022-11-11T07:15:43;32.15;;;30.33;;
23594;SDS011;11975;47.674;9.472;2022-11-11T07:18:10;31.70;;;29.80;;
23594;SDS011;11975;47.674;9.472;2022-11-11T07:20:36;32.53;;;30.45;;
23594;SDS011;11975;47.674;9.472;2022-11-11T07:23:03;32.80;;;30.90;;
23594;SDS011;11975;47.674;9.472;2022-11-11T07:25:29;32.00;;;30.10;;
23594;SDS011;11975;47.674;9.472;2022-11-11T07:27:55;31.75;;;29.85;;
23594;SDS011;11975;47.674;9.472;2022-11-11T07:30:21;30.88;;;29.08;;
23594;SDS011;11975;47.674;9.472;2022-11-11T07:32:48;31.10;;;29.30;;
23594;SDS011;11975;47.674;9.472;2022-11-11T07:35:15;30.33;;;28.52;;
23594;SDS011;11975;47.674;9.472;2022-11-11T07:40:08;32.40;;;30.40;;
23594;SDS011;11975;47.674;9.472;2022-11-11T07:42:36;32.63;;;30.73;;
23594;SDS011;11975;47.674;9.472;2022-11-11T07:45:03;31.73;;;29.83;;
23594;SDS011;11975;47.674;9.472;2022-11-11T07:47:29;31.60;;;29.60;;
23594;SDS011;11975;47.674;9.472;2022-11-11T07:49:55;30.90;;;28.88;;
23594;SDS011;11975;47.674;9.472;2022-11-11T07:52:21;30.00;;;28.20;;
23594;SDS011;11975;47.674;9.472;2022-11-11T07:54:48;28.55;;;26.85;;
23594;SDS011;11975;47.674;9.472;2022-11-11T07:57:15;28.75;;;27.08;;
23594;SDS011;11975;47.674;9.472;2022-11-11T07:59:41;28.90;;;27.20;;
23594;SDS011;11975;47.674;9.472;2022-11-11T08:02:10;29.88;;;28.02;;
23594;SDS011;11975;47.674;9.472;2022-11-11T08:04:36;27.55;;;25.95;;
23594;SDS011;11975;47.674;9.472;2022-11-11T08:07:03;29.08;;;27.27;;
23594;SDS011;11975;47.674;9.472;2022-11-11T08:09:29;28.73;;;26.83;;
23594;SDS011;11975;47.674;9.472;2022-11-11T08:11:55;27.55;;;25.95;;
23594;SDS011;11975;47.674;9.472;2022-11-11T08:14:39;27.88;;;26.27;;
23594;SDS011;11975;47.674;9.472;2022-11-11T08:17:05;28.95;;;27.25;;
23594;SDS011;11975;47.674;9.472;2022-11-11T08:19:31;29.13;;;27.35;;
23594;SDS011;11975;47.674;9.472;2022-11-11T08:21:57;27.77;;;26.17;;
23594;SDS011;11975;47.674;9.472;2022-11-11T08:24:23;28.02;;;26.33;;
23594;SDS011;11975;47.674;9.472;2022-11-11T08:26:49;29.10;;;27.40;;
23594;SDS011;11975;47.674;9.472;2022-11-11T08:29:15;28.17;;;26.48;;
23594;SDS011;11975;47.674;9.472;2022-11-11T08:31:41;27.52;;;25.92;;
23594;SDS011;11975;47.674;9.472;2022-11-11T08:34:07;28.67;;;27.05;;
23594;SDS011;11975;47.674;9.472;2022-11-11T08:36:33;27.40;;;25.70;;
23594;SDS011;11975;47.674;9.472;2022-11-11T08:38:59;28.02;;;26.40;;
23594;SDS011;11975;47.674;9.472;2022-11-11T08:41:25;29.65;;;27.55;;
23594;SDS011;11975;47.674;9.472;2022-11-11T08:43:51;28.60;;;27.00;;
23594;SDS011;11975;47.674;9.472;2022-11-11T08:46:18;28.33;;;26.63;;
23594;SDS011;11975;47.674;9.472;2022-11-11T08:48:44;29.13;;;26.77;;
23594;SDS011;11975;47.674;9.472;2022-11-11T08:51:10;28.50;;;26.80;;
23594;SDS011;11975;47.674;9.472;2022-11-11T08:53:36;27.63;;;25.92;;
23594;SDS011;11975;47.674;9.472;2022-11-11T08:56:02;27.15;;;25.58;;
23594;SDS011;11975;47.674;9.472;2022-11-11T08:58:29;27.85;;;26.25;;
23594;SDS011;11975;47.674;9.472;2022-11-11T09:00:55;26.90;;;25.30;;
23594;SDS011;11975;47.674;9.472;2022-11-11T09:03:21;26.92;;;25.33;;
23594;SDS011;11975;47.674;9.472;2022-11-11T09:05:47;28.05;;;26.23;;
23594;SDS011;11975;47.674;9.472;2022-11-11T09:08:13;27.15;;;25.65;;
23594;SDS011;11975;47.674;9.472;2022-11-11T09:10:39;28.55;;;26.75;;
23594;SDS011;11975;47.674;9.472;2022-11-11T09:13:05;27.30;;;25.70;;
23594;SDS011;11975;47.674;9.472;2022-11-11T09:15:31;30.30;;;25.42;;
23594;SDS011;11975;47.674;9.472;2022-11-11T09:17:57;28.95;;;27.08;;
23594;SDS011;11975;47.674;9.472;2022-11-11T09:20:24;28.60;;;26.90;;
23594;SDS011;11975;47.674;9.472;2022-11-11T09:22:50;27.58;;;25.77;;
23594;SDS011;11975;47.674;9.472;2022-11-11T09:27:43;26.45;;;24.95;;
23594;SDS011;11975;47.674;9.472;2022-11-11T09:30:09;28.10;;;26.05;;
23594;SDS011;11975;47.674;9.472;2022-11-11T09:32:36;28.33;;;26.63;;
23594;SDS011;11975;47.674;9.472;2022-11-11T09:35:02;26.52;;;25.02;;
23594;SDS011;11975;47.674;9.472;2022-11-11T09:37:28;27.80;;;26.20;;
23594;SDS011;11975;47.674;9.472;2022-11-11T09:39:54;27.88;;;26.17;;
23594;SDS011;11975;47.674;9.472;2022-11-11T09:42:32;27.52;;;25.83;;
23594;SDS011;11975;47.674;9.472;2022-11-11T09:50:59;27.63;;;26.02;;
23594;SDS011;11975;47.674;9.472;2022-11-11T09:53:30;27.75;;;26.15;;
23594;SDS011;11975;47.674;9.472;2022-11-11T09:56:05;27.90;;;26.30;;
23594;SDS011;11975;47.674;9.472;2022-11-11T09:58:38;27.30;;;25.55;;
23594;SDS011;11975;47.674;9.472;2022-11-11T10:01:09;27.50;;;25.80;;
23594;SDS011;11975;47.674;9.472;2022-11-11T10:03:39;28.42;;;26.73;;
23594;SDS011;11975;47.674;9.472;2022-11-11T10:06:26;25.92;;;24.42;;
23594;SDS011;11975;47.674;9.472;2022-11-11T10:11:35;25.00;;;23.55;;
23594;SDS011;11975;47.674;9.472;2022-11-11T10:14:22;27.40;;;25.52;;
23594;SDS011;11975;47.674;9.472;2022-11-11T10:17:01;29.35;;;27.27;;
23594;SDS011;11975;47.674;9.472;2022-11-11T10:19:56;27.65;;;26.05;;
23594;SDS011;11975;47.674;9.472;2022-11-11T10:22:32;26.85;;;25.05;;
23594;SDS011;11975;47.674;9.472;2022-11-11T10:27:44;26.67;;;25.05;;
23594;SDS011;11975;47.674;9.472;2022-11-11T10:30:33;26.10;;;24.50;;
23594;SDS011;11975;47.674;9.472;2022-11-11T10:33:05;27.60;;;25.90;;
23594;SDS011;11975;47.674;9.472;2022-11-11T10:35:37;26.98;;;25.27;;
23594;SDS011;11975;47.674;9.472;2022-11-11T10:38:14;26.15;;;24.65;;
23594;SDS011;11975;47.674;9.472;2022-11-11T10:40:49;25.70;;;24.17;;
23594;SDS011;11975;47.674;9.472;2022-11-11T10:43:20;26.35;;;24.40;;
23594;SDS011;11975;47.674;9.472;2022-11-11T10:45:51;28.08;;;26.17;;
23594;SDS011;11975;47.674;9.472;2022-11-11T10:48:19;26.55;;;24.98;;
23594;SDS011;11975;47.674;9.472;2022-11-11T10:50:55;27.85;;;26.15;;
23594;SDS011;11975;47.674;9.472;2022-11-11T10:53:24;27.60;;;26.00;;
23594;SDS011;11975;47.674;9.472;2022-11-11T11:01:09;28.20;;;26.50;;
23594;SDS011;11975;47.674;9.472;2022-11-11T11:03:38;29.10;;;27.25;;
23594;SDS011;11975;47.674;9.472;2022-11-11T11:08:54;29.80;;;28.00;;
23594;SDS011;11975;47.674;9.472;2022-11-11T11:14:29;31.15;;;29.27;;
23594;SDS011;11975;47.674;9.472;2022-11-11T11:16:59;30.23;;;28.33;;
23594;SDS011;11975;47.674;9.472;2022-11-11T11:19:30;32.25;;;30.05;;
23594;SDS011;11975;47.674;9.472;2022-11-11T11:21:57;32.28;;;30.35;;
23594;SDS011;11975;47.674;9.472;2022-11-11T11:24:34;31.10;;;29.20;;
23594;SDS011;11975;47.674;9.472;2022-11-11T11:27:05;30.48;;;28.67;;
23594;SDS011;11975;47.674;9.472;2022-11-11T11:32:10;29.60;;;27.90;;
23594;SDS011;11975;47.674;9.472;2022-11-11T11:37:09;29.77;;;28.08;;
23594;SDS011;11975;47.674;9.472;2022-11-11T11:39:35;30.08;;;28.27;;
23594;SDS011;11975;47.674;9.472;2022-11-11T11:42:03;30.55;;;28.65;;
23594;SDS011;11975;47.674;9.472;2022-11-11T11:44:33;30.70;;;28.80;;
23594;SDS011;11975;47.674;9.472;2022-11-11T11:47:18;31.50;;;29.55;;
23594;SDS011;11975;47.674;9.472;2022-11-11T11:49:57;30.40;;;28.45;;
23594;SDS011;11975;47.674;9.472;2022-11-11T11:55:31;28.92;;;27.23;;
23594;SDS011;11975;47.674;9.472;2022-11-11T11:58:03;29.83;;;28.02;;
23594;SDS011;11975;47.674;9.472;2022-11-11T12:00:42;29.77;;;27.98;;
23594;SDS011;11975;47.674;9.472;2022-11-11T12:03:23;30.98;;;29.00;;
23594;SDS011;11975;47.674;9.472;2022-11-11T12:06:02;29.35;;;27.58;;
23594;SDS011;11975;47.674;9.472;2022-11-11T12:08:46;31.50;;;29.20;;
23594;SDS011;11975;47.674;9.472;2022-11-11T12:16:46;29.10;;;27.40;;
23594;SDS011;11975;47.674;9.472;2022-11-11T12:35:30;27.83;;;26.23;;
23594;SDS011;11975;47.674;9.472;2022-11-11T12:38:08;30.25;;;28.25;;
23594;SDS011;11975;47.674;9.472;2022-11-11T12:43:36;28.35;;;26.65;;
23594;SDS011;11975;47.674;9.472;2022-11-11T12:46:14;28.45;;;26.75;;
23594;SDS011;11975;47.674;9.472;2022-11-11T12:57:33;26.98;;;25.38;;
23594;SDS011;11975;47.674;9.472;2022-11-11T13:00:09;30.13;;;27.52;;
23594;SDS011;11975;47.674;9.472;2022-11-11T13:05:26;28.08;;;26.38;;
23594;SDS011;11975;47.674;9.472;2022-11-11T13:11:10;28.98;;;27.17;;
23594;SDS011;11975;47.674;9.472;2022-11-11T13:14:22;27.40;;;25.80;;
23594;SDS011;11975;47.674;9.472;2022-11-11T13:16:36;26.10;;;24.50;;
23594;SDS011;11975;47.674;9.472;2022-11-11T13:19:03;25.85;;;24.05;;
23594;SDS011;11975;47.674;9.472;2022-11-11T13:21:47;26.38;;;24.80;;
23594;SDS011;11975;47.674;9.472;2022-11-11T13:24:22;26.25;;;24.75;;
23594;SDS011;11975;47.674;9.472;2022-11-11T13:26:50;28.85;;;27.02;;
23594;SDS011;11975;47.674;9.472;2022-11-11T13:32:37;27.77;;;25.92;;
23594;SDS011;11975;47.674;9.472;2022-11-11T13:35:11;25.63;;;24.13;;
23594;SDS011;11975;47.674;9.472;2022-11-11T13:37:44;26.40;;;24.90;;
23594;SDS011;11975;47.674;9.472;2022-11-11T13:40:18;26.98;;;25.27;;
23594;SDS011;11975;47.674;9.472;2022-11-11T13:42:51;26.80;;;25.20;;
23594;SDS011;11975;47.674;9.472;2022-11-11T13:45:23;26.60;;;25.00;;
23594;SDS011;11975;47.674;9.472;2022-11-11T13:48:01;26.90;;;25.15;;
23594;SDS011;11975;47.674;9.472;2022-11-11T13:50:28;26.60;;;24.93;;
23594;SDS011;11975;47.674;9.472;2022-11-11T13:52:57;24.15;;;22.75;;
23594;SDS011;11975;47.674;9.472;2022-11-11T13:55:29;26.58;;;24.85;;
23594;SDS011;11975;47.674;9.472;2022-11-11T13:57:57;26.50;;;25.00;;
23594;SDS011;11975;47.674;9.472;2022-11-11T14:00:25;29.87;;;27.70;;
23594;SDS011;11975;47.674;9.472;2022-11-11T14:05:44;26.20;;;24.50;;
23594;SDS011;11975;47.674;9.472;2022-11-11T14:08:49;23.98;;;22.48;;
23594;SDS011;11975;47.674;9.472;2022-11-11T14:13:57;26.33;;;24.83;;
23594;SDS011;11975;47.674;9.472;2022-11-11T14:21:46;26.65;;;25.05;;
23594;SDS011;11975;47.674;9.472;2022-11-11T14:24:28;27.15;;;25.55;;
23594;SDS011;11975;47.674;9.472;2022-11-11T14:27:00;27.48;;;25.88;;
23594;SDS011;11975;47.674;9.472;2022-11-11T14:29:31;28.02;;;26.33;;
23594;SDS011;11975;47.674;9.472;2022-11-11T14:32:01;26.35;;;24.75;;
23594;SDS011;11975;47.674;9.472;2022-11-11T14:37:37;25.42;;;23.92;;
23594;SDS011;11975;47.674;9.472;2022-11-11T14:40:09;25.02;;;23.42;;
23594;SDS011;11975;47.674;9.472;2022-11-11T14:45:03;27.27;;;25.67;;
23594;SDS011;11975;47.674;9.472;2022-11-11T14:47:36;27.10;;;25.50;;
23594;SDS011;11975;47.674;9.472;2022-11-11T14:52:58;27.30;;;25.65;;
23594;SDS011;11975;47.674;9.472;2022-11-11T14:55:35;25.92;;;24.23;;
23594;SDS011;11975;47.674;9.472;2022-11-11T15:03:11;28.63;;;26.88;;
23594;SDS011;11975;47.674;9.472;2022-11-11T15:11:34;29.05;;;26.73;;
23594;SDS011;11975;47.674;9.472;2022-11-11T15:14:13;27.88;;;26.17;;
23594;SDS011;11975;47.674;9.472;2022-11-11T15:30:44;26.70;;;25.00;;
23594;SDS011;11975;47.674;9.472;2022-11-11T15:33:20;28.02;;;26.23;;
23594;SDS011;11975;47.674;9.472;2022-11-11T15:35:57;26.90;;;25.20;;
23594;SDS011;11975;47.674;9.472;2022-11-11T15:38:40;26.58;;;24.90;;
23594;SDS011;11975;47.674;9.472;2022-11-11T15:41:10;27.02;;;25.40;;
23594;SDS011;11975;47.674;9.472;2022-11-11T15:43:45;28.05;;;26.05;;
23594;SDS011;11975;47.674;9.472;2022-11-11T15:46:17;28.38;;;26.63;;
23594;SDS011;11975;47.674;9.472;2022-11-11T15:48:47;28.05;;;26.23;;
23594;SDS011;11975;47.674;9.472;2022-11-11T15:51:29;28.15;;;26.35;;
23594;SDS011;11975;47.674;9.472;2022-11-11T15:54:14;28.42;;;26.73;;
23594;SDS011;11975;47.674;9.472;2022-11-11T15:56:44;28.95;;;27.10;;
23594;SDS011;11975;47.674;9.472;2022-11-11T15:59:16;29.95;;;28.13;;
23594;SDS011;11975;47.674;9.472;2022-11-11T16:01:43;28.85;;;27.15;;
23594;SDS011;11975;47.674;9.472;2022-11-11T16:04:09;30.00;;;27.95;;
23594;SDS011;11975;47.674;9.472;2022-11-11T16:06:40;29.98;;;27.98;;
23594;SDS011;11975;47.674;9.472;2022-11-11T16:09:08;29.77;;;27.83;;
23594;SDS011;11975;47.674;9.472;2022-11-11T16:11:37;30.10;;;28.17;;
23594;SDS011;11975;47.674;9.472;2022-11-11T16:14:03;28.75;;;27.05;;
23594;SDS011;11975;47.674;9.472;2022-11-11T16:16:30;30.50;;;28.67;;
23594;SDS011;11975;47.674;9.472;2022-11-11T16:24:26;32.53;;;30.50;;
23594;SDS011;11975;47.674;9.472;2022-11-11T16:26:54;29.50;;;27.80;;
23594;SDS011;11975;47.674;9.472;2022-11-11T16:29:21;31.80;;;29.70;;
23594;SDS011;11975;47.674;9.472;2022-11-11T16:31:48;30.45;;;28.67;;
23594;SDS011;11975;47.674;9.472;2022-11-11T16:36:58;33.95;;;31.33;;
23594;SDS011;11975;47.674;9.472;2022-11-11T16:39:34;31.92;;;29.63;;
23594;SDS011;11975;47.674;9.472;2022-11-11T16:42:04;30.67;;;28.88;;
23594;SDS011;11975;47.674;9.472;2022-11-11T16:47:57;30.63;;;28.83;;
23594;SDS011;11975;47.674;9.472;2022-11-11T16:50:07;32.67;;;30.70;;
23594;SDS011;11975;47.674;9.472;2022-11-11T16:52:55;30.98;;;29.02;;
23594;SDS011;11975;47.674;9.472;2022-11-11T16:57:59;29.05;;;27.30;;
23594;SDS011;11975;47.674;9.472;2022-11-11T17:00:27;28.88;;;27.08;;
23594;SDS011;11975;47.674;9.472;2022-11-11T17:03:10;30.10;;;28.20;;
23594;SDS011;11975;47.674;9.472;2022-11-11T17:08:36;28.58;;;26.88;;
23594;SDS011;11975;47.674;9.472;2022-11-11T17:11:04;29.45;;;27.65;;